createdAt,value
2023-10-17T00:01:25.175Z,12.35
2023-10-17T00:06:29.431Z,13.07
2023-10-17T00:11:47.099Z,12.70
2023-10-17T00:16:54.807Z,11.80
2023-10-17T00:22:00.496Z,11.38
2023-10-17T00:27:05.134Z,12.52
2023-10-17T00:32:10.939Z,13.77
2023-10-17T00:37:16.631Z,15.02
2023-10-17T00:42:36.253Z,15.80
2023-10-17T00:47:43.502Z,14.50
2023-10-17T00:52:48.816Z,16.10
2023-10-17T00:57:54.199Z,15.57
2023-10-17T01:03:03.590Z,16.15
2023-10-17T01:13:12.130Z,17.70
2023-10-17T01:18:17.770Z,17.15
2023-10-17T01:23:22.239Z,19.08
2023-10-17T01:28:27.889Z,18.90
2023-10-17T01:33:32.282Z,18.35
2023-10-17T01:38:36.510Z,19.20
2023-10-17T01:43:43.394Z,18.77
2023-10-17T01:48:49.260Z,21.00
2023-10-17T01:53:54.517Z,21.77
2023-10-17T01:59:01.387Z,21.70
2023-10-17T02:04:06.847Z,21.67
2023-10-17T02:09:24.871Z,20.83
2023-10-17T02:14:30.831Z,22.17
2023-10-17T02:19:35.226Z,22.55
2023-10-17T02:24:40.027Z,21.33
2023-10-17T02:29:48.895Z,22.77
2023-10-17T02:34:53.825Z,21.40
2023-10-17T02:40:07.541Z,19.05
2023-10-17T02:45:13.621Z,21.70
2023-10-17T02:50:44.089Z,20.15
2023-10-17T02:55:48.908Z,19.75
2023-10-17T03:00:54.453Z,20.88
2023-10-17T03:05:59.025Z,20.23
2023-10-17T03:11:03.964Z,20.55
2023-10-17T03:16:18.609Z,21.52
2023-10-17T03:21:34.865Z,20.00
2023-10-17T03:26:41.774Z,20.35
2023-10-17T03:31:54.374Z,20.63
2023-10-17T03:37:02.744Z,19.50
2023-10-17T03:42:07.047Z,22.17
2023-10-17T03:47:15.332Z,22.27
2023-10-17T03:52:19.767Z,21.58
2023-10-17T03:57:27.325Z,23.02
2023-10-17T04:02:36.724Z,24.35
2023-10-17T04:07:42.617Z,26.33
2023-10-17T04:12:56.054Z,25.63
2023-10-17T04:18:03.115Z,23.42
2023-10-17T04:23:22.772Z,26.70
2023-10-17T04:28:29.814Z,32.10
2023-10-17T04:33:36.001Z,32.50
2023-10-17T04:38:41.361Z,35.95
2023-10-17T04:43:56.080Z,38.15
2023-10-17T04:49:08.331Z,35.58
2023-10-17T04:54:24.353Z,36.55
2023-10-17T05:05:32.100Z,31.65
2023-10-17T05:10:53.449Z,30.70
2023-10-17T05:16:15.201Z,29.67
2023-10-17T05:21:37.970Z,65.95
2023-10-17T05:26:59.617Z,43.55
2023-10-17T05:32:21.318Z,36.80
2023-10-17T05:37:44.068Z,83.40
2023-10-17T05:43:06.031Z,116.13
2023-10-17T05:48:27.839Z,39.60
2023-10-17T05:53:50.624Z,42.33
2023-10-17T05:59:13.293Z,54.13
2023-10-17T06:04:35.023Z,50.70
2023-10-17T06:09:58.339Z,53.13
2023-10-17T06:15:20.651Z,39.17
2023-10-17T06:20:44.987Z,34.03
2023-10-17T06:26:08.202Z,36.13
2023-10-17T06:31:32.139Z,37.60
2023-10-17T06:36:41.219Z,43.38
2023-10-17T06:41:48.173Z,29.27
2023-10-17T06:46:57.467Z,26.08
2023-10-17T06:52:20.515Z,22.83
2023-10-17T06:57:26.271Z,17.67
2023-10-17T07:02:30.625Z,17.60
2023-10-17T07:07:41.518Z,15.32
2023-10-17T07:12:51.929Z,14.00
2023-10-17T07:18:16.922Z,12.45
2023-10-17T07:23:21.393Z,12.00
2023-10-17T07:28:30.447Z,14.73
2023-10-17T07:33:34.725Z,14.48
2023-10-17T07:38:39.959Z,13.13
2023-10-17T07:43:46.643Z,19.40
2023-10-17T07:48:51.144Z,14.35
2023-10-17T07:53:55.441Z,9.85
2023-10-17T07:59:06.518Z,7.40
2023-10-17T08:04:19.269Z,11.05
2023-10-17T08:09:40.215Z,10.45
2023-10-17T08:14:46.894Z,9.15
2023-10-17T08:20:12.649Z,7.72
2023-10-17T08:25:26.420Z,6.22
2023-10-17T08:30:46.334Z,7.35
2023-10-17T08:36:03.205Z,6.22
2023-10-17T08:41:07.941Z,6.78
2023-10-17T08:46:14.187Z,6.13
2023-10-17T08:51:28.964Z,4.70
2023-10-17T08:56:38.388Z,4.95
2023-10-17T09:02:16.228Z,4.68
2023-10-17T09:07:33.318Z,8.88
2023-10-17T09:12:44.508Z,6.13
2023-10-17T09:18:08.663Z,4.22
2023-10-17T09:23:25.657Z,7.13
2023-10-17T09:28:31.449Z,3.40
2023-10-17T09:33:38.075Z,3.67
2023-10-17T09:38:45.205Z,4.05
2023-10-17T09:43:50.841Z,3.85
2023-10-17T09:49:02.284Z,5.97
2023-10-17T09:54:09.624Z,5.72
2023-10-17T09:59:19.226Z,3.67
2023-10-17T10:04:27.899Z,3.03
2023-10-17T10:09:38.920Z,4.40
2023-10-17T10:14:45.222Z,6.95
2023-10-17T10:20:05.618Z,4.55
2023-10-17T10:25:10.415Z,4.97
2023-10-17T10:30:34.441Z,4.53
2023-10-17T10:35:46.756Z,5.65
2023-10-17T10:40:50.973Z,20.77
2023-10-17T10:45:56.851Z,5.72
2023-10-17T10:51:02.634Z,4.82
2023-10-17T10:56:10.944Z,5.30
2023-10-17T11:01:15.552Z,6.05
2023-10-17T11:06:26.229Z,26.98
2023-10-17T11:11:31.937Z,4.97
2023-10-17T11:16:38.093Z,4.47
2023-10-17T11:21:44.133Z,4.47
2023-10-17T11:26:52.387Z,5.00
2023-10-17T11:32:00.645Z,7.95
2023-10-17T11:37:12.791Z,4.90
2023-10-17T11:42:35.214Z,5.53
2023-10-17T11:47:42.411Z,3.85
2023-10-17T11:52:48.673Z,5.35
2023-10-17T11:57:55.313Z,3.80
2023-10-17T12:03:03.270Z,2.88
2023-10-17T12:08:10.640Z,3.55
2023-10-17T12:13:18.015Z,3.60
2023-10-17T12:18:22.230Z,2.70
2023-10-17T12:23:31.395Z,3.85
2023-10-17T12:28:36.879Z,3.13
2023-10-17T12:33:41.831Z,2.70
2023-10-17T12:38:50.569Z,3.10
2023-10-17T12:43:54.764Z,2.55
2023-10-17T12:48:59.285Z,2.63
2023-10-17T12:54:07.743Z,3.05
2023-10-17T12:59:14.244Z,11.27
2023-10-17T13:04:21.702Z,2.40
2023-10-17T13:09:33.593Z,13.68
2023-10-17T13:14:37.988Z,5.57
2023-10-17T13:19:44.772Z,3.70
2023-10-17T13:24:51.821Z,5.75
2023-10-17T13:29:56.195Z,4.32
2023-10-17T13:35:00.686Z,3.67
2023-10-17T13:40:10.669Z,4.38
2023-10-17T13:45:15.363Z,4.00
2023-10-17T13:50:20.414Z,19.70
2023-10-17T13:55:29.357Z,3.17
2023-10-17T14:00:44.432Z,2.90
2023-10-17T14:05:49.786Z,5.35
2023-10-17T14:10:55.595Z,3.67
2023-10-17T14:15:59.923Z,3.90
2023-10-17T14:21:18.404Z,4.25
2023-10-17T14:26:24.907Z,9.38
2023-10-17T14:31:30.902Z,4.72
2023-10-17T14:36:35.251Z,10.95
2023-10-17T14:41:41.701Z,17.85
2023-10-17T14:46:45.997Z,9.65
2023-10-17T14:51:50.375Z,8.52
2023-10-17T14:56:56.509Z,10.00
2023-10-17T15:02:02.732Z,5.75
2023-10-17T15:07:07.012Z,7.63
2023-10-17T15:12:12.712Z,6.50
2023-10-17T15:17:17.115Z,6.72
2023-10-17T15:22:21.418Z,12.27
2023-10-17T15:27:27.345Z,9.43
2023-10-17T15:32:32.728Z,24.52
2023-10-17T15:37:36.963Z,15.52
2023-10-17T15:42:42.710Z,10.32
2023-10-17T15:47:50.444Z,13.20
2023-10-17T15:52:56.059Z,10.47
2023-10-17T15:58:02.358Z,16.52
2023-10-17T16:03:06.950Z,20.23
2023-10-17T16:08:12.678Z,17.02
2023-10-17T16:13:18.338Z,70.30
2023-10-17T16:18:22.646Z,22.67
2023-10-17T16:23:27.089Z,18.08
2023-10-17T16:28:33.591Z,23.13
2023-10-17T16:33:37.922Z,16.45
2023-10-17T16:38:47.488Z,19.80
2023-10-17T16:49:00.860Z,19.63
2023-10-17T16:54:06.842Z,26.92
2023-10-17T16:59:13.270Z,46.10
2023-10-17T17:04:17.639Z,36.53
2023-10-17T17:09:22.308Z,37.17
2023-10-17T17:14:28.259Z,19.00
2023-10-17T17:19:33.576Z,20.85
2023-10-17T17:24:38.914Z,23.17
2023-10-17T17:29:47.529Z,26.42
2023-10-17T17:34:52.174Z,24.05
2023-10-17T17:39:56.773Z,24.33
2023-10-17T17:45:05.827Z,22.33
2023-10-17T17:50:11.827Z,167.85
2023-10-17T17:55:16.136Z,61.92
2023-10-17T18:00:24.153Z,38.13
2023-10-17T18:05:28.537Z,42.33
2023-10-17T18:10:36.416Z,87.07
2023-10-17T18:15:44.048Z,71.47
2023-10-17T18:20:48.296Z,70.38
2023-10-17T18:25:52.466Z,62.30
2023-10-17T18:31:09.023Z,64.97
2023-10-17T18:36:15.131Z,67.97
2023-10-17T18:41:19.310Z,80.50
2023-10-17T18:46:25.124Z,73.18
2023-10-17T18:51:29.539Z,84.95
2023-10-17T18:56:36.686Z,78.40
2023-10-17T19:01:42.605Z,76.05
2023-10-17T19:06:47.447Z,74.28
2023-10-17T19:11:51.972Z,80.25
2023-10-17T19:16:57.698Z,87.40
2023-10-17T19:22:07.513Z,84.60
2023-10-17T19:27:14.122Z,82.05
2023-10-17T19:32:19.811Z,82.25
2023-10-17T19:37:24.097Z,99.80
2023-10-17T19:42:28.436Z,94.78
2023-10-17T19:47:35.103Z,85.75
2023-10-17T19:52:39.355Z,85.53
2023-10-17T19:57:44.224Z,91.40
2023-10-17T20:02:51.349Z,87.00
2023-10-17T20:07:55.962Z,90.43
2023-10-17T20:13:00.261Z,96.28
2023-10-17T20:18:07.045Z,93.75
2023-10-17T20:23:11.668Z,99.90
2023-10-17T20:28:15.946Z,108.65
2023-10-17T20:33:21.777Z,108.10
2023-10-17T20:38:26.271Z,111.45
2023-10-17T20:43:31.106Z,106.18
2023-10-17T20:48:36.990Z,95.80
2023-10-17T20:53:41.325Z,85.72
2023-10-17T20:58:46.993Z,150.88
2023-10-17T21:03:56.454Z,189.80
2023-10-17T21:09:00.873Z,188.18
2023-10-17T21:14:05.295Z,164.95
2023-10-17T21:19:11.665Z,134.30
2023-10-17T21:24:16.329Z,100.35
2023-10-17T21:29:20.492Z,75.22
2023-10-17T21:34:28.445Z,51.40
2023-10-17T21:39:33.571Z,41.05
2023-10-17T21:44:37.853Z,34.13
2023-10-17T21:49:44.103Z,31.00
2023-10-17T21:54:48.712Z,29.17
2023-10-17T21:59:53.563Z,29.60
2023-10-17T22:05:00.472Z,30.55
2023-10-17T22:10:04.882Z,29.95
2023-10-17T22:15:12.698Z,31.67
2023-10-17T22:20:19.514Z,33.67
2023-10-17T22:25:24.899Z,28.42
2023-10-17T22:30:29.826Z,28.75
2023-10-17T22:35:38.818Z,28.88
2023-10-17T22:40:43.981Z,34.05
2023-10-17T22:45:48.996Z,35.58
2023-10-17T22:50:54.895Z,39.10
2023-10-17T22:55:59.100Z,37.67
2023-10-17T23:01:03.303Z,33.60
2023-10-17T23:06:09.631Z,35.50
2023-10-17T23:11:13.919Z,36.88
2023-10-17T23:16:18.199Z,35.80
2023-10-17T23:21:23.790Z,35.13
2023-10-17T23:26:29.149Z,37.28
2023-10-17T23:31:33.386Z,36.25
2023-10-17T23:36:40.339Z,34.40
2023-10-17T23:41:46.548Z,33.85
2023-10-17T23:46:51.860Z,36.90
2023-10-17T23:51:57.544Z,46.22
2023-10-17T23:57:01.834Z,45.83
